Time;durP1;ratioP1;P1;durP2;ratioP2;P2;SDS_P1;SDS_P2;PMS_P1;PMS_P2;Temp;Humidity;BMP_temperature;BMP_pressure;BME280_temperature;BME280_humidity;BME280_pressure;Samples;Min_cycle;Max_cycle;Signal;HPM_P1;HPM_P2
2023/05/14 00:00:59;;;;;;;9.65;5.35;;;;;;;9.36;53.80;102060.16;5084666;27;20122;-69
2023/05/14 00:03:24;;;;;;;8.60;5.47;;;;;;;9.41;53.54;102057.50;5084764;27;20089;-70
2023/05/14 00:05:50;;;;;;;13.27;5.60;;;;;;;9.27;53.75;102055.09;5079506;27;21117;-69
2023/05/14 00:08:15;;;;;;;14.68;6.28;;;;;;;9.16;54.10;102054.41;5101675;27;20050;-70
2023/05/14 00:10:40;;;;;;;11.00;6.18;;;;;;;9.14;54.15;102051.84;5085938;27;20041;-69
2023/05/14 00:13:06;;;;;;;14.57;5.70;;;;;;;9.07;54.63;102057.16;5078287;28;20047;-68
2023/05/14 00:15:31;;;;;;;12.88;6.10;;;;;;;9.07;54.50;102051.94;5080334;27;20694;-72
2023/05/14 00:17:57;;;;;;;11.30;5.57;;;;;;;9.04;54.50;102050.25;5080789;28;20039;-70
2023/05/14 00:20:22;;;;;;;10.35;4.97;;;;;;;9.08;54.39;102051.06;5089840;27;20432;-69
2023/05/14 00:22:48;;;;;;;15.90;6.47;;;;;;;8.97;54.78;102043.41;5081182;27;20051;-69
2023/05/14 00:25:13;;;;;;;10.32;5.90;;;;;;;8.91;54.76;102036.50;5082675;27;20119;-72
2023/05/14 00:27:39;;;;;;;12.48;5.65;;;;;;;8.98;54.56;102038.16;5080747;27;20060;-70
2023/05/14 00:30:05;;;;;;;12.98;5.97;;;;;;;9.06;54.44;102039.78;5082984;27;20084;-69
2023/05/14 00:32:31;;;;;;;12.75;6.05;;;;;;;9.10;53.90;102031.03;5083863;27;20400;-70
2023/05/14 00:34:57;;;;;;;10.88;5.50;;;;;;;9.05;54.16;102030.22;5082759;27;20027;-69
2023/05/14 00:37:22;;;;;;;9.57;5.28;;;;;;;9.06;54.08;102030.22;5085063;27;20557;-70
2023/05/14 00:39:48;;;;;;;11.27;5.63;;;;;;;9.08;53.87;102022.38;5079251;28;20052;-69
2023/05/14 00:42:13;;;;;;;10.63;5.13;;;;;;;9.10;54.14;102025.81;5063783;28;20040;-70
2023/05/14 00:44:39;;;;;;;10.65;5.78;;;;;;;9.09;53.88;102024.09;5077748;27;20360;-69
2023/05/14 00:47:04;;;;;;;10.07;5.22;;;;;;;9.10;53.76;102025.81;5082388;28;20119;-68
2023/05/14 00:49:30;;;;;;;10.93;4.88;;;;;;;9.15;53.95;102029.22;5082528;27;20039;-69
2023/05/14 00:51:57;;;;;;;7.13;6.10;;;;;;;9.07;53.70;102020.63;5062899;27;20216;-70
2023/05/14 00:54:23;;;;;;;13.80;5.75;;;;;;;9.07;53.89;102018.03;5062880;27;20048;-70
2023/05/14 00:56:49;;;;;;;9.70;6.22;;;;;;;8.94;53.81;102014.72;5063982;28;20861;-70
2023/05/14 00:59:15;;;;;;;11.57;5.75;;;;;;;8.95;53.79;102019.09;5081738;28;20047;-72
2023/05/14 01:01:41;;;;;;;10.40;5.75;;;;;;;8.93;53.94;102018.25;5067587;28;20039;-67
2023/05/14 01:04:08;;;;;;;9.10;6.28;;;;;;;8.85;54.47;102007.06;5054969;28;20044;-69
2023/05/14 01:06:48;;;;;;;9.30;4.97;;;;;;;8.93;54.22;102013.88;5066355;28;20043;-70
2023/05/14 01:09:25;;;;;;;10.68;6.43;;;;;;;9.02;54.08;102012.03;5067016;28;20076;-70
2023/05/14 01:12:15;;;;;;;10.95;5.40;;;;;;;9.12;53.45;102018.81;5066302;28;20047;-70
2023/05/14 01:15:20;;;;;;;13.82;6.32;;;;;;;9.01;53.51;102016.41;5078169;27;20048;-69
2023/05/14 01:17:52;;;;;;;14.63;6.93;;;;;;;8.95;54.06;102019.09;4986869;28;20042;-70
2023/05/14 01:20:17;;;;;;;;;;;;;;;8.87;54.62;102015.72;5069074;28;20044;-69
2023/05/14 01:22:43;;;;;;;18.13;8.38;;;;;;;8.76;55.09;102018.47;5094963;27;19930;-72
2023/05/14 01:25:09;;;;;;;12.80;7.88;;;;;;;8.73;55.38;102016.78;5062469;28;20066;-70
2023/05/14 01:27:56;;;;;;;7.25;6.10;;;;;;;8.80;55.14;102012.34;5048326;28;20118;-69
2023/05/14 01:30:30;;;;;;;9.13;6.80;;;;;;;8.91;55.26;102006.97;5086693;27;20053;-72
2023/05/14 01:32:59;;;;;;;12.10;7.10;;;;;;;8.84;55.01;102008.81;5074722;27;20080;-69
2023/05/14 01:35:27;;;;;;;18.98;8.27;;;;;;;8.91;54.89;102000.00;5075722;28;20051;-71
2023/05/14 01:37:56;;;;;;;13.32;7.10;;;;;;;8.91;55.04;102004.38;5063832;28;22021;-71
2023/05/14 01:40:22;;;;;;;15.48;6.57;;;;;;;8.99;55.01;101999.91;5085963;28;20039;-72
2023/05/14 01:42:52;;;;;;;15.35;7.38;;;;;;;9.10;54.31;101997.13;5083736;28;20871;-72
2023/05/14 01:45:22;;;;;;;18.30;7.05;;;;;;;9.23;53.41;102011.69;5064025;28;20054;-72
2023/05/14 01:47:48;;;;;;;15.48;7.28;;;;;;;9.12;53.65;102001.44;5048144;28;20060;-71
2023/05/14 01:50:13;;;;;;;14.02;7.70;;;;;;;9.02;53.86;102001.59;5067330;28;20115;-70
2023/05/14 01:52:39;;;;;;;14.10;6.93;;;;;;;8.88;54.37;101994.84;5060795;27;20051;-70
2023/05/14 01:55:05;;;;;;;8.57;7.07;;;;;;;8.89;54.68;101996.56;5103442;27;20137;-72
2023/05/14 01:57:31;;;;;;;9.32;6.38;;;;;;;8.94;54.51;101994.75;5064177;28;20032;-71
2023/05/14 01:59:56;;;;;;;8.38;6.03;;;;;;;8.94;54.42;101992.16;5069431;28;20043;-72
2023/05/14 02:02:22;;;;;;;11.85;7.35;;;;;;;9.02;54.48;101984.19;5071462;28;20035;-71
2023/05/14 02:04:47;;;;;;;11.15;6.55;;;;;;;9.08;54.28;101985.88;5082350;28;20071;-72
2023/05/14 02:07:13;;;;;;;13.77;7.82;;;;;;;9.02;53.90;101981.59;5050262;28;20058;-71
2023/05/14 02:09:41;;;;;;;11.93;6.43;;;;;;;9.06;53.96;101982.41;5062599;28;20048;-71
2023/05/14 02:12:07;;;;;;;15.10;6.45;;;;;;;9.02;54.13;101980.75;5066528;28;20039;-72
2023/05/14 02:14:33;;;;;;;14.63;8.13;;;;;;;8.97;53.84;101981.66;5068114;28;20070;-71
2023/05/14 02:16:58;;;;;;;9.60;6.85;;;;;;;8.94;53.92;101973.91;5100639;27;20130;-72
2023/05/14 02:19:24;;;;;;;17.98;7.63;;;;;;;9.02;54.05;101970.31;5084178;27;20075;-72
2023/05/14 02:21:49;;;;;;;8.77;7.07;;;;;;;9.03;53.89;101972.00;5082030;27;20127;-70
2023/05/14 02:24:15;;;;;;;13.63;7.38;;;;;;;8.96;53.86;101974.75;5083171;27;20669;-70
2023/05/14 02:26:41;;;;;;;12.52;7.65;;;;;;;8.94;54.09;101973.03;5088378;27;20745;-71
2023/05/14 02:29:07;;;;;;;15.00;6.82;;;;;;;8.93;53.75;101972.16;5071034;28;20055;-71
2023/05/14 02:31:32;;;;;;;9.43;6.57;;;;;;;8.97;53.98;101963.41;5084350;27;20043;-72
2023/05/14 02:33:59;;;;;;;11.82;7.72;;;;;;;8.92;54.04;101949.59;5083772;27;20036;-71
2023/05/14 02:36:25;;;;;;;11.60;7.30;;;;;;;8.81;54.32;101948.91;5083838;27;20043;-70
2023/05/14 02:38:50;;;;;;;18.55;9.68;;;;;;;8.77;54.28;101949.84;5086387;27;20043;-71
2023/05/14 02:41:16;;;;;;;11.85;8.13;;;;;;;8.79;54.32;101945.47;5081621;27;20835;-70
2023/05/14 02:43:41;;;;;;;13.00;8.38;;;;;;;8.95;53.98;101946.94;5066217;28;20826;-70
2023/05/14 02:46:06;;;;;;;10.23;8.30;;;;;;;9.08;53.84;101944.13;5082943;27;20534;-71
2023/05/14 02:48:32;;;;;;;15.63;8.18;;;;;;;9.12;53.54;101945.78;5074429;27;20074;-70
2023/05/14 02:50:57;;;;;;;11.57;7.60;;;;;;;9.07;53.46;101947.63;5066175;28;20047;-69
2023/05/14 02:53:23;;;;;;;16.08;8.02;;;;;;;9.11;53.33;101944.06;5067589;27;20150;-72
2023/05/14 02:55:48;;;;;;;14.80;8.55;;;;;;;9.07;53.54;101942.41;5084377;27;20051;-71
2023/05/14 02:58:14;;;;;;;13.07;8.38;;;;;;;8.98;53.62;101946.91;5072719;28;20036;-70
2023/05/14 03:00:40;;;;;;;14.15;8.25;;;;;;;9.07;53.56;101947.63;5066303;28;20164;-71
2023/05/14 03:03:05;;;;;;;10.98;7.25;;;;;;;9.04;53.33;101932.03;5048387;28;20039;-72
2023/05/14 03:05:31;;;;;;;13.73;8.38;;;;;;;8.97;53.73;101936.47;5062143;28;20035;-71
2023/05/14 03:07:57;;;;;;;11.48;7.80;;;;;;;8.93;53.47;101943.47;5063962;28;20509;-71
2023/05/14 03:10:22;;;;;;;14.82;8.48;;;;;;;8.98;53.70;101933.84;5067429;28;20028;-72
2023/05/14 03:12:48;;;;;;;9.05;6.22;;;;;;;9.00;53.78;101928.59;5062014;28;20052;-73
2023/05/14 03:15:13;;;;;;;11.35;6.90;;;;;;;9.03;53.57;101933.78;5061973;28;20394;-72
2023/05/14 03:17:39;;;;;;;17.75;8.73;;;;;;;9.03;53.26;101930.28;5045151;28;20035;-71
2023/05/14 03:20:05;;;;;;;9.80;7.60;;;;;;;9.12;53.21;101922.31;5061699;28;20590;-71
2023/05/14 03:22:30;;;;;;;10.70;7.75;;;;;;;9.12;53.17;101930.13;5061735;28;20042;-70
2023/05/14 03:24:56;;;;;;;12.63;7.85;;;;;;;9.04;53.00;101929.41;5064535;28;20040;-71
2023/05/14 03:27:21;;;;;;;8.63;6.75;;;;;;;8.98;53.21;101928.66;5062938;28;20032;-69
2023/05/14 03:29:47;;;;;;;11.45;7.22;;;;;;;8.95;53.41;101928.69;5066373;28;20633;-69
2023/05/14 03:32:12;;;;;;;11.45;7.80;;;;;;;8.97;53.43;101926.91;5063598;28;20035;-73
2023/05/14 03:34:38;;;;;;;12.60;7.97;;;;;;;9.06;53.24;101925.03;5082038;27;20052;-72
2023/05/14 03:37:03;;;;;;;12.27;7.35;;;;;;;9.08;53.54;101918.91;5071210;28;20036;-70
2023/05/14 03:39:29;;;;;;;12.50;7.97;;;;;;;9.11;53.13;101918.00;5063039;28;20036;-72
2023/05/14 03:41:58;;;;;;;13.10;7.72;;;;;;;9.14;53.31;101913.59;5066725;28;20030;-70
2023/05/14 03:44:24;;;;;;;13.68;8.63;;;;;;;9.16;53.27;101916.16;5059220;28;20037;-69
2023/05/14 03:46:49;;;;;;;12.27;9.10;;;;;;;9.25;52.64;101922.97;5066162;28;20672;-71
2023/05/14 03:49:15;;;;;;;11.25;8.45;;;;;;;9.15;52.62;101920.53;5077959;27;20154;-70
2023/05/14 03:51:40;;;;;;;13.10;9.25;;;;;;;9.10;52.92;101919.75;5080729;27;20044;-71
2023/05/14 03:54:06;;;;;;;15.15;8.95;;;;;;;9.07;53.32;101916.31;5063135;28;20053;-71
2023/05/14 03:56:31;;;;;;;16.10;9.85;;;;;;;9.02;53.47;101912.94;5062701;28;20130;-70
2023/05/14 03:58:57;;;;;;;12.50;8.23;;;;;;;9.12;53.55;101911.88;5068588;27;20119;-72
2023/05/14 04:01:22;;;;;;;14.88;9.07;;;;;;;9.23;53.26;101909.09;5064683;28;20845;-71
2023/05/14 04:03:49;;;;;;;14.70;9.63;;;;;;;9.35;52.85;101912.34;5076531;27;20052;-71
2023/05/14 04:06:15;;;;;;;13.55;9.30;;;;;;;9.42;52.77;101907.88;5081193;27;20040;-70
2023/05/14 04:08:40;;;;;;;13.93;9.75;;;;;;;9.37;52.57;101910.56;5080879;27;20046;-71
2023/05/14 04:11:05;;;;;;;13.75;9.32;;;;;;;9.37;52.75;101914.94;5085208;28;20096;-72
2023/05/14 04:13:31;;;;;;;12.25;8.35;;;;;;;9.45;52.91;101912.16;5080082;27;20043;-70
2023/05/14 04:15:57;;;;;;;16.05;10.43;;;;;;;9.49;52.78;101908.63;5060731;28;20251;-71
2023/05/14 04:18:22;;;;;;;13.45;9.80;;;;;;;9.53;52.81;101910.28;5082413;28;20549;-71
2023/05/14 04:20:48;;;;;;;12.18;9.90;;;;;;;9.56;52.19;101911.06;5080598;28;20127;-71
2023/05/14 04:23:13;;;;;;;15.00;9.80;;;;;;;9.59;52.38;101918.00;5081935;28;20548;-72
2023/05/14 04:25:39;;;;;;;14.18;11.77;;;;;;;9.50;52.12;101910.31;5077565;28;20446;-71
2023/05/14 04:28:04;;;;;;;17.38;10.27;;;;;;;9.38;52.77;101907.06;5082922;28;20743;-72
2023/05/14 04:30:30;;;;;;;12.38;9.65;;;;;;;9.53;53.24;101907.66;5085057;28;20629;-72
2023/05/14 04:32:55;;;;;;;11.52;8.93;;;;;;;9.67;52.34;101904.78;5078486;28;20040;-72
2023/05/14 04:35:21;;;;;;;14.35;9.45;;;;;;;9.74;52.33;101894.19;5096366;27;20059;-72
2023/05/14 04:37:47;;;;;;;14.13;9.68;;;;;;;9.66;52.39;101898.72;5097363;27;20043;-72
2023/05/14 04:40:15;;;;;;;11.68;9.02;;;;;;;9.74;52.48;101901.16;5079444;28;20639;-72
2023/05/14 04:42:42;;;;;;;15.25;10.50;;;;;;;9.80;52.56;101903.69;5080127;28;20032;-71
2023/05/14 04:45:08;;;;;;;16.42;9.73;;;;;;;9.85;52.38;101898.38;5080983;28;20098;-71
2023/05/14 04:47:34;;;;;;;14.80;9.93;;;;;;;9.87;52.27;101899.19;5080783;28;20039;-71
2023/05/14 04:49:59;;;;;;;13.43;10.60;;;;;;;9.91;51.96;101911.31;5082438;28;20097;-70
2023/05/14 04:52:25;;;;;;;18.50;11.02;;;;;;;10.08;51.97;101909.19;5089082;28;20031;-71
2023/05/14 04:54:50;;;;;;;14.30;9.73;;;;;;;10.30;51.41;101903.50;5081216;27;20523;-72
2023/05/14 04:57:16;;;;;;;14.30;10.73;;;;;;;10.32;51.06;101902.56;5080746;27;20721;-70
2023/05/14 04:59:41;;;;;;;13.15;9.93;;;;;;;10.43;51.36;101910.16;5080527;28;20158;-71
2023/05/14 05:02:07;;;;;;;15.07;9.38;;;;;;;10.63;51.17;101902.69;5082877;27;20038;-72
2023/05/14 05:04:32;;;;;;;16.05;10.20;;;;;;;10.80;49.86;101899.69;5080115;28;20458;-71
2023/05/14 05:06:58;;;;;;;13.65;10.88;;;;;;;10.94;49.65;101898.53;5080793;28;20078;-72
2023/05/14 05:09:23;;;;;;;12.20;9.38;;;;;;;11.14;50.14;101895.41;5080680;28;20114;-71
2023/05/14 05:11:49;;;;;;;15.45;10.38;;;;;;;11.31;49.90;101895.81;5080761;28;20408;-71
2023/05/14 05:14:14;;;;;;;15.02;10.50;;;;;;;11.49;49.14;101898.84;5078858;27;20511;-70
2023/05/14 05:16:40;;;;;;;16.50;9.93;;;;;;;11.61;47.85;101901.09;5080285;28;20158;-72
2023/05/14 05:19:05;;;;;;;13.35;9.77;;;;;;;11.63;47.61;101920.25;5078935;28;20491;-70
2023/05/14 05:21:31;;;;;;;14.07;9.65;;;;;;;11.35;47.47;101927.97;5086941;27;20136;-69
2023/05/14 05:23:56;;;;;;;12.68;9.32;;;;;;;11.29;48.45;101902.84;5077030;28;20209;-71
2023/05/14 05:26:23;;;;;;;12.68;9.38;;;;;;;11.25;48.59;101911.69;5080754;28;20103;-71
2023/05/14 05:28:48;;;;;;;11.32;9.43;;;;;;;11.34;48.88;101934.97;5076882;28;20123;-71
2023/05/14 05:31:15;;;;;;;12.95;8.93;;;;;;;11.57;48.59;101926.50;5086603;28;20748;-71
2023/05/14 05:33:40;;;;;;;12.02;9.32;;;;;;;11.72;47.77;101920.00;5067171;28;20243;-70
2023/05/14 05:36:06;;;;;;;10.25;8.15;;;;;;;11.86;47.46;101917.84;5060820;28;20035;-72
2023/05/14 05:38:31;;;;;;;13.40;8.52;;;;;;;12.04;46.43;101912.97;5062023;28;20064;-71
2023/05/14 05:40:57;;;;;;;8.68;7.72;;;;;;;12.11;44.45;101938.13;5060304;28;20043;-71
2023/05/14 05:43:22;;;;;;;10.68;7.22;;;;;;;12.00;43.78;101932.31;5066227;28;20063;-72
2023/05/14 05:45:48;;;;;;;11.07;7.47;;;;;;;12.19;44.12;101911.69;5080598;28;20281;-70
2023/05/14 05:48:13;;;;;;;11.93;7.82;;;;;;;12.26;44.50;101926.31;5077476;28;20418;-69
2023/05/14 05:50:39;;;;;;;7.20;6.32;;;;;;;12.27;43.95;101949.00;5058577;28;20036;-70
2023/05/14 05:53:04;;;;;;;11.27;7.85;;;;;;;12.12;44.27;101923.25;5060682;28;20126;-72
2023/05/14 05:55:30;;;;;;;7.90;6.72;;;;;;;12.54;44.44;101917.59;5058779;28;20127;-69
2023/05/14 05:57:55;;;;;;;18.35;7.80;;;;;;;12.61;43.52;101940.09;5063213;28;20066;-69
2023/05/14 06:00:21;;;;;;;11.63;6.55;;;;;;;12.80;43.41;101943.00;5059784;28;20037;-72
2023/05/14 06:02:47;;;;;;;6.97;6.13;;;;;;;13.06;41.80;101943.00;5060592;28;20052;-72
2023/05/14 06:05:13;;;;;;;11.13;6.60;;;;;;;13.33;41.45;101935.94;5062091;28;20033;-69
2023/05/14 06:07:38;;;;;;;8.23;6.75;;;;;;;13.37;41.36;101936.72;5061776;28;20036;-71
2023/05/14 06:10:05;;;;;;;7.20;6.50;;;;;;;13.37;41.18;101938.50;5061069;28;20040;-68
2023/05/14 06:12:30;;;;;;;7.28;6.00;;;;;;;13.42;40.27;101937.41;5064230;28;20231;-72
2023/05/14 06:14:56;;;;;;;10.63;5.85;;;;;;;13.35;40.59;101949.03;5057781;28;20369;-72
2023/05/14 06:17:25;;;;;;;8.30;6.00;;;;;;;13.18;40.38;101935.63;5060475;28;20122;-70
2023/05/14 06:19:51;;;;;;;5.63;4.95;;;;;;;13.25;40.89;101931.88;5063917;28;20040;-69
2023/05/14 06:22:17;;;;;;;8.68;6.18;;;;;;;13.29;40.63;101937.00;5060692;28;20506;-69
2023/05/14 06:24:42;;;;;;;8.35;6.07;;;;;;;13.27;40.89;101943.19;5064135;28;20044;-70
2023/05/14 06:27:10;;;;;;;10.60;6.30;;;;;;;13.29;40.06;101944.00;5059693;28;20039;-70
2023/05/14 06:29:36;;;;;;;7.50;5.68;;;;;;;13.30;41.07;101943.94;5057911;28;20048;-69
2023/05/14 06:32:02;;;;;;;6.05;5.45;;;;;;;13.64;40.59;101949.81;5060062;28;20036;-68
2023/05/14 06:34:29;;;;;;;6.57;5.88;;;;;;;13.92;39.27;101947.91;5061918;27;20048;-70
2023/05/14 06:36:54;;;;;;;6.25;5.63;;;;;;;14.10;40.13;101950.75;5064640;28;20084;-69
2023/05/14 06:39:20;;;;;;;7.50;5.85;;;;;;;14.61;38.11;101960.16;5065963;28;20043;-69
2023/05/14 06:41:45;;;;;;;9.15;5.15;;;;;;;14.98;36.88;101953.44;5064035;28;20045;-69
2023/05/14 06:44:13;;;;;;;5.97;5.30;;;;;;;15.28;38.10;101955.72;5060805;28;20036;-70
2023/05/14 06:46:38;;;;;;;9.23;6.32;;;;;;;15.28;37.73;101950.44;5082831;27;20042;-70
2023/05/14 06:49:04;;;;;;;6.20;5.40;;;;;;;15.48;37.80;101950.47;5068951;27;20036;-70
2023/05/14 06:51:29;;;;;;;7.75;5.60;;;;;;;15.49;37.47;101943.41;5064504;28;20028;-70
2023/05/14 06:53:55;;;;;;;5.63;4.95;;;;;;;15.77;35.74;101949.16;5074797;27;20050;-69
2023/05/14 06:56:21;;;;;;;5.45;4.43;;;;;;;15.86;36.19;101947.00;5081405;28;20070;-68
2023/05/14 06:58:47;;;;;;;7.13;5.53;;;;;;;15.82;36.01;101959.50;5076254;27;20495;-70
2023/05/14 07:01:13;;;;;;;6.97;4.68;;;;;;;15.85;35.84;101951.44;5061985;28;20031;-69
2023/05/14 07:03:38;;;;;;;5.82;5.13;;;;;;;16.06;35.76;101939.06;5062054;28;20611;-69
2023/05/14 07:06:05;;;;;;;9.93;4.97;;;;;;;15.97;35.70;101942.09;5062797;28;20036;-69
2023/05/14 07:08:31;;;;;;;5.95;4.65;;;;;;;15.88;35.71;101938.09;5074009;27;20545;-69
2023/05/14 07:10:56;;;;;;;7.82;5.30;;;;;;;15.78;36.26;101948.22;5084202;27;20062;-69
2023/05/14 07:13:22;;;;;;;6.13;4.95;;;;;;;15.81;37.15;101939.31;5093414;27;20074;-70
2023/05/14 07:15:47;;;;;;;8.98;5.30;;;;;;;16.10;36.01;101940.66;5062057;28;20118;-71
2023/05/14 07:18:13;;;;;;;6.47;4.72;;;;;;;16.42;35.63;101936.50;5062388;28;20067;-70
2023/05/14 07:20:38;;;;;;;5.32;4.35;;;;;;;16.76;35.01;101932.25;5064758;28;20101;-70
2023/05/14 07:23:04;;;;;;;8.10;5.75;;;;;;;16.87;35.95;101941.41;5068783;27;20478;-70
2023/05/14 07:25:29;;;;;;;6.50;4.82;;;;;;;16.79;34.83;101945.28;5081027;27;20038;-69
2023/05/14 07:27:55;;;;;;;5.43;4.80;;;;;;;17.03;34.23;101942.34;5076456;27;20040;-70
2023/05/14 07:30:20;;;;;;;7.15;4.95;;;;;;;16.98;35.06;101947.03;5049355;28;20138;-69
2023/05/14 07:32:45;;;;;;;6.15;5.55;;;;;;;16.70;34.28;101945.69;5063280;27;20055;-71
2023/05/14 07:35:11;;;;;;;6.65;4.97;;;;;;;16.76;34.76;101942.81;5064088;28;20024;-69
2023/05/14 07:37:37;;;;;;;5.97;4.68;;;;;;;16.70;34.71;101935.16;5064213;27;20575;-70
2023/05/14 07:40:03;;;;;;;5.38;4.65;;;;;;;17.33;32.77;101937.28;5103945;27;20510;-69
2023/05/14 07:42:29;;;;;;;11.05;5.63;;;;;;;17.19;32.88;101937.16;5080701;28;20036;-70
2023/05/14 07:44:54;;;;;;;4.57;4.07;;;;;;;16.72;33.76;101937.72;5080079;28;20541;-69
2023/05/14 07:47:20;;;;;;;6.05;4.43;;;;;;;16.00;34.85;101934.94;5063530;28;20039;-71
2023/05/14 07:49:45;;;;;;;5.32;4.82;;;;;;;16.56;34.62;101933.19;5084839;27;20291;-70
2023/05/14 07:52:11;;;;;;;5.38;4.22;;;;;;;16.37;34.16;101927.94;5081805;28;20036;-69
2023/05/14 07:54:36;;;;;;;6.28;4.78;;;;;;;16.27;34.43;101931.94;5095046;27;20050;-70
2023/05/14 07:57:01;;;;;;;5.78;4.82;;;;;;;16.42;34.59;101925.94;5085013;28;20063;-70
2023/05/14 07:59:27;;;;;;;7.10;5.15;;;;;;;16.82;34.11;101924.03;5079869;28;20040;-70
2023/05/14 08:01:53;;;;;;;5.43;4.93;;;;;;;17.01;33.70;101917.81;5079937;28;20142;-70
2023/05/14 08:04:18;;;;;;;4.65;3.75;;;;;;;17.60;34.69;101923.56;5087133;27;20082;-70
2023/05/14 08:06:44;;;;;;;8.40;5.65;;;;;;;17.73;32.70;101914.06;5099335;27;20406;-71
2023/05/14 08:09:10;;;;;;;5.93;4.63;;;;;;;17.74;32.85;101920.19;5086833;28;20546;-71
2023/05/14 08:11:35;;;;;;;4.47;4.07;;;;;;;17.50;32.94;101920.56;5081894;28;20059;-71
2023/05/14 08:14:00;;;;;;;8.65;5.35;;;;;;;17.05;34.37;101919.38;5082095;27;20562;-71
2023/05/14 08:16:26;;;;;;;7.40;5.28;;;;;;;16.94;34.07;101919.91;5081239;27;20603;-69
2023/05/14 08:18:51;;;;;;;16.52;7.82;;;;;;;16.94;33.58;101922.53;5076363;28;20036;-70
2023/05/14 08:21:17;;;;;;;6.03;5.20;;;;;;;17.34;35.17;101919.66;5060159;28;20108;-70
2023/05/14 08:23:42;;;;;;;5.75;4.18;;;;;;;17.65;32.85;101919.75;5072368;27;20032;-71
2023/05/14 08:26:08;;;;;;;5.68;4.22;;;;;;;17.72;33.51;101915.00;5089032;27;20036;-71
2023/05/14 08:28:33;;;;;;;7.03;4.18;;;;;;;17.61;32.60;101920.84;5068619;27;20051;-69
2023/05/14 08:30:59;;;;;;;5.18;4.78;;;;;;;17.80;32.02;101911.94;5063088;28;20055;-70
2023/05/14 08:33:24;;;;;;;5.20;4.50;;;;;;;17.58;32.94;101917.50;5067711;27;20984;-71
2023/05/14 08:35:53;;;;;;;5.68;5.20;;;;;;;18.16;32.29;101916.13;5079698;27;20047;-70
2023/05/14 08:38:19;;;;;;;7.88;4.65;;;;;;;18.61;32.44;101911.88;5073062;28;20470;-69
2023/05/14 08:40:52;;;;;;;6.75;5.20;;;;;;;19.06;31.25;101916.25;5062917;28;20544;-70
2023/05/14 08:43:24;;;;;;;8.80;4.90;;;;;;;19.20;32.31;101906.63;5086798;27;20063;-70
2023/05/14 08:45:56;;;;;;;5.13;4.35;;;;;;;19.23;30.22;101909.97;5087101;27;20047;-70
2023/05/14 08:48:22;;;;;;;6.78;4.32;;;;;;;19.34;30.92;101913.75;5073080;27;20059;-70
2023/05/14 08:50:48;;;;;;;5.40;4.75;;;;;;;19.61;31.10;101912.06;5061180;28;20032;-70
2023/05/14 08:53:13;;;;;;;5.75;4.80;;;;;;;19.99;31.37;101900.00;5064718;28;20052;-70
2023/05/14 08:55:39;;;;;;;5.88;5.38;;;;;;;19.92;29.96;101899.53;5057039;28;20485;-70
2023/05/14 08:58:04;;;;;;;5.93;4.60;;;;;;;19.79;30.35;101894.19;5066974;28;20043;-69
2023/05/14 09:00:30;;;;;;;6.95;5.30;;;;;;;19.33;30.93;101890.84;5081771;27;20023;-70
2023/05/14 09:02:56;;;;;;;5.30;4.90;;;;;;;19.36;30.54;101893.31;5081683;27;20059;-71
2023/05/14 09:05:22;;;;;;;4.68;4.28;;;;;;;19.91;31.30;101893.38;5079404;27;20039;-69
2023/05/14 09:07:48;;;;;;;5.30;4.10;;;;;;;20.48;30.09;101895.00;5077943;27;20048;-70
2023/05/14 09:10:15;;;;;;;10.27;4.22;;;;;;;20.17;29.62;101890.00;5064479;28;20054;-71
2023/05/14 09:12:40;;;;;;;5.63;4.25;;;;;;;19.91;30.78;101895.19;5060463;28;20488;-70
2023/05/14 09:15:06;;;;;;;5.57;5.05;;;;;;;19.63;30.96;101899.56;5079677;28;20032;-71
2023/05/14 09:17:32;;;;;;;5.55;3.72;;;;;;;19.68;30.29;101892.19;5080163;27;20051;-71
2023/05/14 09:19:58;;;;;;;6.25;4.15;;;;;;;19.89;31.06;101895.28;5082408;27;20941;-70
2023/05/14 09:22:23;;;;;;;4.22;3.85;;;;;;;20.46;30.60;101893.41;5074042;28;20371;-71
2023/05/14 09:25:03;;;;;;;4.90;4.30;;;;;;;20.86;29.43;101881.00;5082043;27;20084;-69
2023/05/14 09:27:30;;;;;;;5.18;4.18;;;;;;;20.98;29.24;101889.97;5079361;27;20032;-71
2023/05/14 09:30:10;;;;;;;4.50;4.10;;;;;;;21.21;29.52;101896.34;5081838;28;20575;-69
2023/05/14 09:32:39;;;;;;;5.10;3.97;;;;;;;21.36;27.86;101889.94;5080636;27;20036;-70
2023/05/14 09:35:23;;;;;;;4.43;3.92;;;;;;;20.96;28.38;101881.25;5063375;28;20039;-70
2023/05/14 09:37:52;;;;;;;5.60;3.88;;;;;;;21.64;28.94;101882.69;5063986;28;20051;-70
2023/05/14 09:40:20;;;;;;;3.97;3.67;;;;;;;21.50;27.92;101885.50;5079930;28;20046;-70
2023/05/14 09:42:47;;;;;;;3.80;3.50;;;;;;;21.20;28.34;101883.13;5081123;27;20055;-69
2023/05/14 09:45:12;;;;;;;5.60;3.65;;;;;;;21.33;27.98;101879.53;5049653;28;20464;-71
2023/05/14 09:47:38;;;;;;;5.40;3.85;;;;;;;21.92;28.11;101883.38;5057623;28;20036;-71
2023/05/14 09:50:05;;;;;;;5.72;3.92;;;;;;;21.91;27.48;101868.34;5063758;28;20035;-70
2023/05/14 09:52:31;;;;;;;5.10;3.10;;;;;;;21.92;27.22;101870.06;5058317;28;20028;-70
2023/05/14 09:55:00;;;;;;;3.42;2.88;;;;;;;21.54;27.56;101860.38;5061927;28;20028;-70
2023/05/14 09:57:26;;;;;;;5.22;3.17;;;;;;;21.53;27.99;101859.53;5058115;27;20039;-70
2023/05/14 09:59:55;;;;;;;3.70;2.22;;;;;;;21.69;27.63;101856.63;5050040;28;20050;-70
2023/05/14 10:02:29;;;;;;;4.93;3.38;;;;;;;21.79;27.29;101850.63;5061615;28;20054;-70
2023/05/14 10:04:59;;;;;;;2.85;2.65;;;;;;;21.18;28.20;101858.47;5080637;28;20471;-70
2023/05/14 10:07:30;;;;;;;3.63;2.80;;;;;;;21.44;27.74;101853.97;5085855;28;20122;-70
2023/05/14 10:10:01;;;;;;;3.17;2.38;;;;;;;21.04;27.49;101856.78;5067279;28;20498;-71
2023/05/14 10:12:30;;;;;;;;;;;;;;;21.92;26.79;101846.13;5061749;28;20190;-70
2023/05/14 10:14:59;;;;;;;4.05;2.42;;;;;;;21.93;25.52;101845.16;5083607;28;19916;-72
2023/05/14 10:17:30;;;;;;;2.47;2.28;;;;;;;22.46;27.82;101848.31;5080180;27;20046;-69
2023/05/14 10:19:57;;;;;;;2.27;2.07;;;;;;;23.10;23.99;101847.88;5084404;28;20028;-69
2023/05/14 10:22:29;;;;;;;3.15;2.05;;;;;;;22.27;25.43;101837.34;5083222;27;20350;-70
2023/05/14 10:24:55;;;;;;;2.15;1.77;;;;;;;22.54;24.46;101839.75;5084612;28;20035;-69
2023/05/14 10:27:21;;;;;;;2.35;1.83;;;;;;;22.79;23.16;101833.44;5082881;27;20051;-70
2023/05/14 10:29:54;;;;;;;2.67;1.38;;;;;;;23.13;23.21;101831.63;5071079;28;20134;-70
2023/05/14 10:32:24;;;;;;;2.75;1.67;;;;;;;23.53;21.91;101816.97;5072476;28;20038;-71
2023/05/14 10:34:53;;;;;;;1.30;1.20;;;;;;;23.49;23.16;101823.53;5078251;27;20052;-71
2023/05/14 10:37:24;;;;;;;1.92;1.73;;;;;;;23.15;24.63;101824.34;5066122;28;20094;-70
2023/05/14 10:39:51;;;;;;;5.25;1.73;;;;;;;22.79;22.81;101823.59;5085632;27;20550;-70
2023/05/14 10:42:20;;;;;;;4.50;1.52;;;;;;;22.96;22.96;101824.97;5093602;27;20028;-71
2023/05/14 10:44:50;;;;;;;1.42;1.02;;;;;;;23.36;22.58;101811.16;5086595;27;20056;-70
2023/05/14 10:47:16;;;;;;;2.13;1.53;;;;;;;23.72;21.85;101817.19;5090928;27;20046;-69
2023/05/14 10:49:44;;;;;;;1.38;1.17;;;;;;;23.82;21.36;101810.09;5067330;28;20047;-72
2023/05/14 10:52:11;;;;;;;5.15;1.73;;;;;;;23.40;21.89;101811.75;5088302;27;20403;-71
2023/05/14 10:54:36;;;;;;;1.70;1.05;;;;;;;22.92;22.94;101812.00;5081556;27;20652;-71
2023/05/14 10:57:02;;;;;;;2.08;1.48;;;;;;;22.80;23.24;101803.13;5088376;28;20084;-71
2023/05/14 10:59:28;;;;;;;4.15;2.40;;;;;;;23.35;23.16;101801.47;5083615;27;20583;-70
2023/05/14 11:01:56;;;;;;;2.53;1.65;;;;;;;23.78;23.44;101789.97;5086730;27;20031;-70
2023/05/14 11:04:26;;;;;;;5.95;1.60;;;;;;;23.68;22.82;101797.03;5087198;27;20055;-70
2023/05/14 11:06:52;;;;;;;1.70;1.25;;;;;;;23.29;21.50;101796.63;5083859;27;20473;-71
2023/05/14 11:09:20;;;;;;;4.65;1.20;;;;;;;22.59;22.04;101798.47;5083599;27;20043;-71
2023/05/14 11:11:46;;;;;;;2.22;1.55;;;;;;;23.12;20.91;101797.06;5084424;27;20093;-69
2023/05/14 11:14:12;;;;;;;2.33;1.35;;;;;;;22.88;22.23;101800.72;5071613;27;20056;-71
2023/05/14 11:16:40;;;;;;;2.97;0.98;;;;;;;22.87;20.32;101793.69;5067297;28;20155;-70
2023/05/14 11:19:05;;;;;;;2.65;1.38;;;;;;;23.02;21.71;101790.78;5060085;28;20039;-71
2023/05/14 11:21:31;;;;;;;1.65;1.00;;;;;;;23.27;20.59;101790.56;5079760;27;20105;-70